sensor_id;sensor_type;location;lat;lon;timestamp;P1;durP1;ratioP1;P2;durP2;ratioP2
41661;SDS011;27351;45.992;12.666;2023-02-22T00:02:11;115.50;;;66.20;;
41661;SDS011;27351;45.992;12.666;2023-02-22T00:04:49;113.60;;;65.57;;
41661;SDS011;27351;45.992;12.666;2023-02-22T00:07:14;110.32;;;63.17;;
41661;SDS011;27351;45.992;12.666;2023-02-22T00:09:40;118.30;;;66.88;;
41661;SDS011;27351;45.992;12.666;2023-02-22T00:12:06;110.70;;;62.40;;
41661;SDS011;27351;45.992;12.666;2023-02-22T00:14:33;108.57;;;61.60;;
41661;SDS011;27351;45.992;12.666;2023-02-22T00:16:59;106.78;;;61.38;;
41661;SDS011;27351;45.992;12.666;2023-02-22T00:19:25;105.72;;;61.83;;
41661;SDS011;27351;45.992;12.666;2023-02-22T00:21:52;107.72;;;61.65;;
41661;SDS011;27351;45.992;12.666;2023-02-22T00:24:18;108.70;;;60.60;;
41661;SDS011;27351;45.992;12.666;2023-02-22T00:26:51;107.80;;;60.22;;
41661;SDS011;27351;45.992;12.666;2023-02-22T00:29:16;106.80;;;61.05;;
41661;SDS011;27351;45.992;12.666;2023-02-22T00:31:43;102.38;;;61.38;;
41661;SDS011;27351;45.992;12.666;2023-02-22T00:34:10;102.93;;;59.73;;
41661;SDS011;27351;45.992;12.666;2023-02-22T00:36:37;112.95;;;60.60;;
41661;SDS011;27351;45.992;12.666;2023-02-22T00:39:03;100.67;;;60.03;;
41661;SDS011;27351;45.992;12.666;2023-02-22T00:41:28;107.63;;;61.80;;
41661;SDS011;27351;45.992;12.666;2023-02-22T00:43:54;102.90;;;58.13;;
41661;SDS011;27351;45.992;12.666;2023-02-22T00:46:20;100.70;;;58.78;;
41661;SDS011;27351;45.992;12.666;2023-02-22T00:48:45;100.70;;;57.20;;
41661;SDS011;27351;45.992;12.666;2023-02-22T00:51:11;95.63;;;57.05;;
41661;SDS011;27351;45.992;12.666;2023-02-22T00:53:37;97.55;;;56.00;;
41661;SDS011;27351;45.992;12.666;2023-02-22T00:56:03;98.30;;;56.73;;
41661;SDS011;27351;45.992;12.666;2023-02-22T00:58:28;99.63;;;58.40;;
41661;SDS011;27351;45.992;12.666;2023-02-22T01:00:56;102.63;;;58.33;;
41661;SDS011;27351;45.992;12.666;2023-02-22T01:03:21;100.30;;;58.37;;
41661;SDS011;27351;45.992;12.666;2023-02-22T01:05:48;100.32;;;59.30;;
41661;SDS011;27351;45.992;12.666;2023-02-22T01:08:14;101.73;;;58.90;;
41661;SDS011;27351;45.992;12.666;2023-02-22T01:10:40;102.10;;;59.25;;
41661;SDS011;27351;45.992;12.666;2023-02-22T01:13:06;104.50;;;59.20;;
41661;SDS011;27351;45.992;12.666;2023-02-22T01:15:37;94.60;;;55.45;;
41661;SDS011;27351;45.992;12.666;2023-02-22T01:18:03;100.57;;;59.15;;
41661;SDS011;27351;45.992;12.666;2023-02-22T01:20:29;100.93;;;58.88;;
41661;SDS011;27351;45.992;12.666;2023-02-22T01:22:56;98.53;;;57.97;;
41661;SDS011;27351;45.992;12.666;2023-02-22T01:25:23;96.03;;;56.13;;
41661;SDS011;27351;45.992;12.666;2023-02-22T01:27:49;98.97;;;56.85;;
41661;SDS011;27351;45.992;12.666;2023-02-22T01:30:15;103.30;;;58.17;;
41661;SDS011;27351;45.992;12.666;2023-02-22T01:32:41;106.28;;;58.38;;
41661;SDS011;27351;45.992;12.666;2023-02-22T01:35:08;100.80;;;56.67;;
41661;SDS011;27351;45.992;12.666;2023-02-22T01:37:34;100.43;;;56.47;;
41661;SDS011;27351;45.992;12.666;2023-02-22T01:39:59;101.05;;;58.28;;
41661;SDS011;27351;45.992;12.666;2023-02-22T01:42:25;110.60;;;58.33;;
41661;SDS011;27351;45.992;12.666;2023-02-22T01:47:35;102.95;;;58.22;;
41661;SDS011;27351;45.992;12.666;2023-02-22T01:50:01;97.57;;;57.07;;
41661;SDS011;27351;45.992;12.666;2023-02-22T01:52:26;98.20;;;55.17;;
41661;SDS011;27351;45.992;12.666;2023-02-22T01:54:53;103.10;;;57.90;;
41661;SDS011;27351;45.992;12.666;2023-02-22T01:57:38;89.03;;;50.30;;
41661;SDS011;27351;45.992;12.666;2023-02-22T02:00:06;98.88;;;55.78;;
41661;SDS011;27351;45.992;12.666;2023-02-22T02:02:40;89.82;;;51.83;;
41661;SDS011;27351;45.992;12.666;2023-02-22T02:05:07;96.28;;;55.30;;
41661;SDS011;27351;45.992;12.666;2023-02-22T02:07:34;89.20;;;51.30;;
41661;SDS011;27351;45.992;12.666;2023-02-22T02:10:02;93.13;;;53.40;;
41661;SDS011;27351;45.992;12.666;2023-02-22T02:12:29;84.40;;;48.45;;
41661;SDS011;27351;45.992;12.666;2023-02-22T02:17:40;92.75;;;50.45;;
41661;SDS011;27351;45.992;12.666;2023-02-22T02:36:10;88.63;;;51.00;;
41661;SDS011;27351;45.992;12.666;2023-02-22T02:38:40;86.25;;;51.33;;
41661;SDS011;27351;45.992;12.666;2023-02-22T02:41:13;86.32;;;50.95;;
41661;SDS011;27351;45.992;12.666;2023-02-22T02:47:04;101.13;;;55.85;;
41661;SDS011;27351;45.992;12.666;2023-02-22T02:49:11;95.65;;;56.38;;
41661;SDS011;27351;45.992;12.666;2023-02-22T02:51:41;98.55;;;58.75;;
41661;SDS011;27351;45.992;12.666;2023-02-22T02:54:08;99.50;;;58.05;;
41661;SDS011;27351;45.992;12.666;2023-02-22T02:56:34;105.73;;;58.13;;
41661;SDS011;27351;45.992;12.666;2023-02-22T02:59:00;101.00;;;58.40;;
41661;SDS011;27351;45.992;12.666;2023-02-22T03:01:30;103.53;;;58.37;;
41661;SDS011;27351;45.992;12.666;2023-02-22T03:04:01;108.03;;;58.42;;
41661;SDS011;27351;45.992;12.666;2023-02-22T03:06:36;102.30;;;58.83;;
41661;SDS011;27351;45.992;12.666;2023-02-22T03:09:11;101.90;;;59.38;;
41661;SDS011;27351;45.992;12.666;2023-02-22T03:12:43;100.03;;;57.80;;
41661;SDS011;27351;45.992;12.666;2023-02-22T03:14:46;100.35;;;57.47;;
41661;SDS011;27351;45.992;12.666;2023-02-22T03:17:22;99.75;;;57.80;;
41661;SDS011;27351;45.992;12.666;2023-02-22T03:19:53;107.43;;;59.38;;
41661;SDS011;27351;45.992;12.666;2023-02-22T03:25:12;101.45;;;58.97;;
41661;SDS011;27351;45.992;12.666;2023-02-22T03:27:41;109.55;;;59.92;;
41661;SDS011;27351;45.992;12.666;2023-02-22T03:30:10;96.60;;;54.07;;
41661;SDS011;27351;45.992;12.666;2023-02-22T03:32:39;101.00;;;57.20;;
41661;SDS011;27351;45.992;12.666;2023-02-22T03:35:27;101.30;;;57.10;;
41661;SDS011;27351;45.992;12.666;2023-02-22T03:37:55;103.00;;;58.33;;
41661;SDS011;27351;45.992;12.666;2023-02-22T03:40:32;97.60;;;54.25;;
41661;SDS011;27351;45.992;12.666;2023-02-22T03:43:06;98.50;;;57.13;;
41661;SDS011;27351;45.992;12.666;2023-02-22T03:45:35;104.90;;;56.57;;
41661;SDS011;27351;45.992;12.666;2023-02-22T03:48:05;103.00;;;61.83;;
41661;SDS011;27351;45.992;12.666;2023-02-22T03:50:32;99.90;;;56.65;;
41661;SDS011;27351;45.992;12.666;2023-02-22T03:53:00;102.15;;;58.15;;
41661;SDS011;27351;45.992;12.666;2023-02-22T03:55:27;99.68;;;56.83;;
41661;SDS011;27351;45.992;12.666;2023-02-22T03:57:57;99.70;;;56.33;;
41661;SDS011;27351;45.992;12.666;2023-02-22T04:00:26;97.30;;;56.42;;
41661;SDS011;27351;45.992;12.666;2023-02-22T04:02:53;98.82;;;54.60;;
41661;SDS011;27351;45.992;12.666;2023-02-22T04:05:20;102.15;;;56.95;;
41661;SDS011;27351;45.992;12.666;2023-02-22T04:07:46;97.47;;;54.25;;
41661;SDS011;27351;45.992;12.666;2023-02-22T04:10:14;93.30;;;54.13;;
41661;SDS011;27351;45.992;12.666;2023-02-22T04:12:40;97.82;;;54.45;;
41661;SDS011;27351;45.992;12.666;2023-02-22T04:15:06;95.47;;;54.33;;
41661;SDS011;27351;45.992;12.666;2023-02-22T04:17:33;95.53;;;54.35;;
41661;SDS011;27351;45.992;12.666;2023-02-22T04:19:59;103.13;;;56.03;;
41661;SDS011;27351;45.992;12.666;2023-02-22T04:22:33;90.00;;;52.58;;
41661;SDS011;27351;45.992;12.666;2023-02-22T04:24:59;93.72;;;51.92;;
41661;SDS011;27351;45.992;12.666;2023-02-22T04:27:25;91.43;;;52.90;;
41661;SDS011;27351;45.992;12.666;2023-02-22T04:29:54;104.28;;;59.22;;
41661;SDS011;27351;45.992;12.666;2023-02-22T04:32:20;91.80;;;53.28;;
41661;SDS011;27351;45.992;12.666;2023-02-22T04:34:45;91.57;;;51.78;;
41661;SDS011;27351;45.992;12.666;2023-02-22T04:37:11;98.55;;;55.50;;
41661;SDS011;27351;45.992;12.666;2023-02-22T04:39:37;94.85;;;53.25;;
41661;SDS011;27351;45.992;12.666;2023-02-22T04:42:02;89.95;;;50.72;;
41661;SDS011;27351;45.992;12.666;2023-02-22T04:44:31;93.72;;;52.78;;
41661;SDS011;27351;45.992;12.666;2023-02-22T04:46:57;92.53;;;54.25;;
41661;SDS011;27351;45.992;12.666;2023-02-22T04:49:23;90.97;;;52.00;;
41661;SDS011;27351;45.992;12.666;2023-02-22T04:51:51;98.82;;;54.08;;
41661;SDS011;27351;45.992;12.666;2023-02-22T04:54:20;93.07;;;54.40;;
41661;SDS011;27351;45.992;12.666;2023-02-22T04:56:46;102.60;;;57.63;;
41661;SDS011;27351;45.992;12.666;2023-02-22T04:59:12;100.77;;;54.77;;
41661;SDS011;27351;45.992;12.666;2023-02-22T05:01:41;98.93;;;55.50;;
41661;SDS011;27351;45.992;12.666;2023-02-22T05:04:07;99.10;;;55.53;;
41661;SDS011;27351;45.992;12.666;2023-02-22T05:06:33;97.50;;;54.43;;
41661;SDS011;27351;45.992;12.666;2023-02-22T05:08:58;93.87;;;50.83;;
41661;SDS011;27351;45.992;12.666;2023-02-22T05:11:24;88.17;;;49.30;;
41661;SDS011;27351;45.992;12.666;2023-02-22T05:13:50;79.90;;;45.53;;
41661;SDS011;27351;45.992;12.666;2023-02-22T05:16:15;79.35;;;45.35;;
41661;SDS011;27351;45.992;12.666;2023-02-22T05:18:41;79.30;;;45.80;;
41661;SDS011;27351;45.992;12.666;2023-02-22T05:21:07;80.65;;;45.85;;
41661;SDS011;27351;45.992;12.666;2023-02-22T05:23:33;82.28;;;47.03;;
41661;SDS011;27351;45.992;12.666;2023-02-22T05:25:58;85.97;;;47.93;;
41661;SDS011;27351;45.992;12.666;2023-02-22T05:28:24;89.87;;;50.07;;
41661;SDS011;27351;45.992;12.666;2023-02-22T05:30:49;87.30;;;49.33;;
41661;SDS011;27351;45.992;12.666;2023-02-22T05:33:15;91.90;;;47.55;;
41661;SDS011;27351;45.992;12.666;2023-02-22T05:35:41;80.63;;;47.22;;
41661;SDS011;27351;45.992;12.666;2023-02-22T05:38:08;81.60;;;47.58;;
41661;SDS011;27351;45.992;12.666;2023-02-22T05:40:34;84.63;;;48.53;;
41661;SDS011;27351;45.992;12.666;2023-02-22T05:42:59;81.67;;;47.93;;
41661;SDS011;27351;45.992;12.666;2023-02-22T05:45:26;80.85;;;45.92;;
41661;SDS011;27351;45.992;12.666;2023-02-22T05:47:52;76.57;;;45.20;;
41661;SDS011;27351;45.992;12.666;2023-02-22T05:50:18;82.78;;;45.78;;
41661;SDS011;27351;45.992;12.666;2023-02-22T05:52:45;79.10;;;42.97;;
41661;SDS011;27351;45.992;12.666;2023-02-22T05:55:12;76.57;;;44.00;;
41661;SDS011;27351;45.992;12.666;2023-02-22T05:57:38;72.63;;;42.35;;
41661;SDS011;27351;45.992;12.666;2023-02-22T06:00:04;73.13;;;41.90;;
41661;SDS011;27351;45.992;12.666;2023-02-22T06:02:38;71.43;;;41.17;;
41661;SDS011;27351;45.992;12.666;2023-02-22T06:05:03;74.55;;;40.88;;
41661;SDS011;27351;45.992;12.666;2023-02-22T06:07:29;64.88;;;37.33;;
41661;SDS011;27351;45.992;12.666;2023-02-22T06:09:55;66.67;;;38.63;;
41661;SDS011;27351;45.992;12.666;2023-02-22T06:12:20;67.10;;;39.40;;
41661;SDS011;27351;45.992;12.666;2023-02-22T06:14:46;71.97;;;40.17;;
41661;SDS011;27351;45.992;12.666;2023-02-22T06:17:13;70.60;;;38.17;;
41661;SDS011;27351;45.992;12.666;2023-02-22T06:19:39;67.30;;;38.45;;
41661;SDS011;27351;45.992;12.666;2023-02-22T06:22:07;69.13;;;39.05;;
41661;SDS011;27351;45.992;12.666;2023-02-22T06:24:32;69.83;;;39.57;;
41661;SDS011;27351;45.992;12.666;2023-02-22T06:27:00;70.27;;;39.43;;
41661;SDS011;27351;45.992;12.666;2023-02-22T06:29:26;71.00;;;41.80;;
41661;SDS011;27351;45.992;12.666;2023-02-22T06:31:52;75.90;;;42.17;;
41661;SDS011;27351;45.992;12.666;2023-02-22T06:34:18;66.53;;;38.67;;
41661;SDS011;27351;45.992;12.666;2023-02-22T06:36:44;80.10;;;45.17;;
41661;SDS011;27351;45.992;12.666;2023-02-22T06:39:12;74.50;;;40.65;;
41661;SDS011;27351;45.992;12.666;2023-02-22T06:41:40;67.80;;;38.53;;
41661;SDS011;27351;45.992;12.666;2023-02-22T06:44:05;67.80;;;39.25;;
41661;SDS011;27351;45.992;12.666;2023-02-22T06:46:31;71.13;;;41.67;;
41661;SDS011;27351;45.992;12.666;2023-02-22T06:48:56;75.47;;;47.10;;
41661;SDS011;27351;45.992;12.666;2023-02-22T06:51:24;70.40;;;39.75;;
41661;SDS011;27351;45.992;12.666;2023-02-22T06:53:50;71.25;;;39.30;;
41661;SDS011;27351;45.992;12.666;2023-02-22T06:56:16;70.03;;;39.10;;
41661;SDS011;27351;45.992;12.666;2023-02-22T06:58:42;65.60;;;37.10;;
41661;SDS011;27351;45.992;12.666;2023-02-22T07:01:07;61.70;;;35.03;;
41661;SDS011;27351;45.992;12.666;2023-02-22T07:03:33;63.33;;;36.57;;
41661;SDS011;27351;45.992;12.666;2023-02-22T07:06:00;63.92;;;35.15;;
41661;SDS011;27351;45.992;12.666;2023-02-22T07:08:29;60.92;;;35.58;;
41661;SDS011;27351;45.992;12.666;2023-02-22T07:10:55;64.50;;;38.83;;
41661;SDS011;27351;45.992;12.666;2023-02-22T07:13:20;64.33;;;37.27;;
41661;SDS011;27351;45.992;12.666;2023-02-22T07:15:46;63.00;;;36.37;;
41661;SDS011;27351;45.992;12.666;2023-02-22T07:18:11;66.13;;;37.70;;
41661;SDS011;27351;45.992;12.666;2023-02-22T07:20:38;66.88;;;37.75;;
41661;SDS011;27351;45.992;12.666;2023-02-22T07:23:05;66.60;;;37.53;;
41661;SDS011;27351;45.992;12.666;2023-02-22T07:25:30;72.57;;;38.53;;
41661;SDS011;27351;45.992;12.666;2023-02-22T07:27:56;64.50;;;36.17;;
41661;SDS011;27351;45.992;12.666;2023-02-22T07:30:28;62.83;;;36.67;;
41661;SDS011;27351;45.992;12.666;2023-02-22T07:32:56;62.03;;;36.35;;
41661;SDS011;27351;45.992;12.666;2023-02-22T07:35:26;65.53;;;34.95;;
41661;SDS011;27351;45.992;12.666;2023-02-22T07:37:52;61.67;;;36.25;;
41661;SDS011;27351;45.992;12.666;2023-02-22T07:40:17;61.85;;;35.70;;
41661;SDS011;27351;45.992;12.666;2023-02-22T07:42:50;59.90;;;35.50;;
41661;SDS011;27351;45.992;12.666;2023-02-22T07:45:15;57.90;;;33.23;;
41661;SDS011;27351;45.992;12.666;2023-02-22T07:47:41;56.43;;;32.80;;
41661;SDS011;27351;45.992;12.666;2023-02-22T07:50:07;59.70;;;33.90;;
41661;SDS011;27351;45.992;12.666;2023-02-22T07:52:32;54.58;;;32.08;;
41661;SDS011;27351;45.992;12.666;2023-02-22T07:54:58;58.65;;;31.48;;
41661;SDS011;27351;45.992;12.666;2023-02-22T07:57:24;54.60;;;31.27;;
41661;SDS011;27351;45.992;12.666;2023-02-22T07:59:50;58.35;;;33.28;;
41661;SDS011;27351;45.992;12.666;2023-02-22T08:02:16;52.78;;;30.10;;
41661;SDS011;27351;45.992;12.666;2023-02-22T08:04:41;57.08;;;31.40;;
41661;SDS011;27351;45.992;12.666;2023-02-22T08:07:07;55.88;;;30.67;;
41661;SDS011;27351;45.992;12.666;2023-02-22T08:09:32;56.45;;;31.48;;
41661;SDS011;27351;45.992;12.666;2023-02-22T08:11:58;54.05;;;31.08;;
41661;SDS011;27351;45.992;12.666;2023-02-22T08:14:24;57.95;;;32.72;;
41661;SDS011;27351;45.992;12.666;2023-02-22T08:16:49;61.30;;;34.03;;
41661;SDS011;27351;45.992;12.666;2023-02-22T08:19:15;60.35;;;34.33;;
41661;SDS011;27351;45.992;12.666;2023-02-22T08:21:41;60.58;;;33.22;;
41661;SDS011;27351;45.992;12.666;2023-02-22T08:24:06;55.03;;;31.80;;
41661;SDS011;27351;45.992;12.666;2023-02-22T08:26:32;55.47;;;33.10;;
41661;SDS011;27351;45.992;12.666;2023-02-22T08:28:57;56.20;;;31.80;;
41661;SDS011;27351;45.992;12.666;2023-02-22T08:31:24;60.15;;;33.67;;
41661;SDS011;27351;45.992;12.666;2023-02-22T08:33:50;59.55;;;32.15;;
41661;SDS011;27351;45.992;12.666;2023-02-22T08:36:15;53.15;;;30.77;;
41661;SDS011;27351;45.992;12.666;2023-02-22T08:38:42;56.30;;;30.95;;
41661;SDS011;27351;45.992;12.666;2023-02-22T08:41:08;57.07;;;30.93;;
41661;SDS011;27351;45.992;12.666;2023-02-22T08:43:34;53.30;;;30.37;;
41661;SDS011;27351;45.992;12.666;2023-02-22T08:45:59;54.97;;;29.80;;
41661;SDS011;27351;45.992;12.666;2023-02-22T08:48:25;54.67;;;29.63;;
41661;SDS011;27351;45.992;12.666;2023-02-22T08:50:50;54.67;;;29.63;;
41661;SDS011;27351;45.992;12.666;2023-02-22T08:53:16;53.15;;;29.67;;
41661;SDS011;27351;45.992;12.666;2023-02-22T08:55:42;57.27;;;31.07;;
41661;SDS011;27351;45.992;12.666;2023-02-22T08:58:08;55.10;;;29.63;;
41661;SDS011;27351;45.992;12.666;2023-02-22T09:00:34;54.80;;;29.25;;
41661;SDS011;27351;45.992;12.666;2023-02-22T09:03:00;54.53;;;30.70;;
41661;SDS011;27351;45.992;12.666;2023-02-22T09:05:26;56.92;;;31.48;;
41661;SDS011;27351;45.992;12.666;2023-02-22T09:07:52;54.13;;;30.70;;
41661;SDS011;27351;45.992;12.666;2023-02-22T09:10:19;56.13;;;32.13;;
41661;SDS011;27351;45.992;12.666;2023-02-22T09:12:45;52.95;;;32.00;;
41661;SDS011;27351;45.992;12.666;2023-02-22T09:15:11;59.70;;;32.20;;
41661;SDS011;27351;45.992;12.666;2023-02-22T09:17:37;56.22;;;32.55;;
41661;SDS011;27351;45.992;12.666;2023-02-22T09:20:06;53.20;;;30.77;;
41661;SDS011;27351;45.992;12.666;2023-02-22T09:22:32;55.10;;;31.47;;
41661;SDS011;27351;45.992;12.666;2023-02-22T09:24:58;60.93;;;33.13;;
41661;SDS011;27351;45.992;12.666;2023-02-22T09:27:23;51.53;;;30.97;;
41661;SDS011;27351;45.992;12.666;2023-02-22T09:29:52;53.20;;;30.63;;
41661;SDS011;27351;45.992;12.666;2023-02-22T09:32:18;51.53;;;29.08;;
41661;SDS011;27351;45.992;12.666;2023-02-22T09:34:45;47.07;;;28.67;;
41661;SDS011;27351;45.992;12.666;2023-02-22T09:37:11;51.63;;;28.90;;
41661;SDS011;27351;45.992;12.666;2023-02-22T09:39:37;47.03;;;27.48;;
41661;SDS011;27351;45.992;12.666;2023-02-22T09:47:21;51.25;;;29.73;;
41661;SDS011;27351;45.992;12.666;2023-02-22T09:50:01;49.40;;;28.90;;
41661;SDS011;27351;45.992;12.666;2023-02-22T09:52:29;47.92;;;26.95;;
41661;SDS011;27351;45.992;12.666;2023-02-22T09:55:07;48.47;;;27.83;;
41661;SDS011;27351;45.992;12.666;2023-02-22T09:57:35;50.33;;;28.27;;
41661;SDS011;27351;45.992;12.666;2023-02-22T10:00:06;48.20;;;27.52;;
41661;SDS011;27351;45.992;12.666;2023-02-22T10:05:36;47.95;;;27.23;;
41661;SDS011;27351;45.992;12.666;2023-02-22T10:08:05;50.07;;;28.37;;
41661;SDS011;27351;45.992;12.666;2023-02-22T10:10:35;48.92;;;28.13;;
41661;SDS011;27351;45.992;12.666;2023-02-22T10:23:33;44.63;;;26.27;;
41661;SDS011;27351;45.992;12.666;2023-02-22T10:28:45;48.53;;;27.05;;
41661;SDS011;27351;45.992;12.666;2023-02-22T10:31:22;49.30;;;27.92;;
41661;SDS011;27351;45.992;12.666;2023-02-22T10:33:52;46.60;;;26.60;;
41661;SDS011;27351;45.992;12.666;2023-02-22T10:36:21;45.33;;;27.25;;
41661;SDS011;27351;45.992;12.666;2023-02-22T10:38:52;47.22;;;26.73;;
41661;SDS011;27351;45.992;12.666;2023-02-22T10:41:32;47.03;;;26.90;;
41661;SDS011;27351;45.992;12.666;2023-02-22T10:43:58;44.20;;;26.30;;
41661;SDS011;27351;45.992;12.666;2023-02-22T10:46:24;46.75;;;26.55;;
41661;SDS011;27351;45.992;12.666;2023-02-22T10:48:53;46.53;;;26.63;;
41661;SDS011;27351;45.992;12.666;2023-02-22T10:51:19;46.75;;;26.77;;
41661;SDS011;27351;45.992;12.666;2023-02-22T10:53:45;47.40;;;27.50;;
41661;SDS011;27351;45.992;12.666;2023-02-22T10:56:20;49.63;;;28.13;;
41661;SDS011;27351;45.992;12.666;2023-02-22T10:58:49;47.58;;;27.10;;
41661;SDS011;27351;45.992;12.666;2023-02-22T11:03:58;48.53;;;26.58;;
41661;SDS011;27351;45.992;12.666;2023-02-22T11:06:24;49.63;;;27.83;;
41661;SDS011;27351;45.992;12.666;2023-02-22T11:08:50;48.33;;;27.75;;
41661;SDS011;27351;45.992;12.666;2023-02-22T11:11:21;49.92;;;28.92;;
41661;SDS011;27351;45.992;12.666;2023-02-22T11:13:55;47.78;;;27.20;;
41661;SDS011;27351;45.992;12.666;2023-02-22T11:18:50;48.80;;;27.93;;
41661;SDS011;27351;45.992;12.666;2023-02-22T11:21:24;48.90;;;28.50;;
41661;SDS011;27351;45.992;12.666;2023-02-22T11:23:50;48.15;;;27.88;;
41661;SDS011;27351;45.992;12.666;2023-02-22T11:26:25;48.80;;;27.50;;
41661;SDS011;27351;45.992;12.666;2023-02-22T11:28:51;49.00;;;29.33;;
41661;SDS011;27351;45.992;12.666;2023-02-22T11:31:24;49.90;;;30.52;;
41661;SDS011;27351;45.992;12.666;2023-02-22T11:38:55;48.15;;;27.13;;
41661;SDS011;27351;45.992;12.666;2023-02-22T11:41:28;47.75;;;27.42;;
41661;SDS011;27351;45.992;12.666;2023-02-22T11:43:54;50.20;;;28.40;;
41661;SDS011;27351;45.992;12.666;2023-02-22T11:46:35;47.13;;;27.90;;
41661;SDS011;27351;45.992;12.666;2023-02-22T11:49:02;45.27;;;26.80;;
41661;SDS011;27351;45.992;12.666;2023-02-22T11:51:33;50.40;;;27.55;;
41661;SDS011;27351;45.992;12.666;2023-02-22T11:56:49;50.22;;;28.45;;
41661;SDS011;27351;45.992;12.666;2023-02-22T12:02:04;48.38;;;26.92;;
41661;SDS011;27351;45.992;12.666;2023-02-22T12:17:50;46.55;;;27.63;;
41661;SDS011;27351;45.992;12.666;2023-02-22T12:20:22;46.13;;;27.00;;
41661;SDS011;27351;45.992;12.666;2023-02-22T12:23:04;45.65;;;28.08;;
41661;SDS011;27351;45.992;12.666;2023-02-22T12:25:35;50.30;;;28.38;;
41661;SDS011;27351;45.992;12.666;2023-02-22T12:28:15;46.22;;;27.67;;
41661;SDS011;27351;45.992;12.666;2023-02-22T12:30:43;47.28;;;27.85;;
41661;SDS011;27351;45.992;12.666;2023-02-22T12:33:21;45.30;;;27.67;;
41661;SDS011;27351;45.992;12.666;2023-02-22T12:35:50;46.65;;;28.35;;
41661;SDS011;27351;45.992;12.666;2023-02-22T12:43:38;50.08;;;28.02;;
41661;SDS011;27351;45.992;12.666;2023-02-22T12:46:11;47.85;;;27.23;;
41661;SDS011;27351;45.992;12.666;2023-02-22T12:48:42;44.50;;;26.67;;
41661;SDS011;27351;45.992;12.666;2023-02-22T12:53:48;48.80;;;28.05;;
41661;SDS011;27351;45.992;12.666;2023-02-22T12:56:20;49.88;;;27.52;;
41661;SDS011;27351;45.992;12.666;2023-02-22T12:58:52;47.40;;;27.50;;
41661;SDS011;27351;45.992;12.666;2023-02-22T13:01:19;43.10;;;26.00;;
41661;SDS011;27351;45.992;12.666;2023-02-22T13:03:46;47.67;;;27.05;;
41661;SDS011;27351;45.992;12.666;2023-02-22T13:06:20;48.13;;;25.80;;
41661;SDS011;27351;45.992;12.666;2023-02-22T13:20:33;44.10;;;27.02;;
41661;SDS011;27351;45.992;12.666;2023-02-22T13:22:41;44.78;;;27.35;;
41661;SDS011;27351;45.992;12.666;2023-02-22T13:30:12;44.90;;;26.77;;
41661;SDS011;27351;45.992;12.666;2023-02-22T13:32:56;45.50;;;27.35;;
41661;SDS011;27351;45.992;12.666;2023-02-22T13:45:45;43.83;;;25.80;;
41661;SDS011;27351;45.992;12.666;2023-02-22T13:50:47;138.95;;;35.65;;
41661;SDS011;27351;45.992;12.666;2023-02-22T13:53:20;83.93;;;30.65;;
41661;SDS011;27351;45.992;12.666;2023-02-22T13:55:51;46.35;;;27.05;;
41661;SDS011;27351;45.992;12.666;2023-02-22T13:58:17;50.00;;;26.23;;
41661;SDS011;27351;45.992;12.666;2023-02-22T14:08:06;45.80;;;26.73;;
41661;SDS011;27351;45.992;12.666;2023-02-22T14:10:43;45.67;;;27.35;;
41661;SDS011;27351;45.992;12.666;2023-02-22T14:13:10;45.92;;;25.85;;
41661;SDS011;27351;45.992;12.666;2023-02-22T14:15:36;43.50;;;25.50;;
41661;SDS011;27351;45.992;12.666;2023-02-22T14:18:21;44.08;;;25.63;;
41661;SDS011;27351;45.992;12.666;2023-02-22T14:20:47;44.20;;;26.85;;
41661;SDS011;27351;45.992;12.666;2023-02-22T14:23:33;43.67;;;25.90;;
41661;SDS011;27351;45.992;12.666;2023-02-22T14:31:14;48.28;;;27.70;;
41661;SDS011;27351;45.992;12.666;2023-02-22T14:33:52;48.90;;;26.98;;
41661;SDS011;27351;45.992;12.666;2023-02-22T14:36:19;46.58;;;26.73;;
41661;SDS011;27351;45.992;12.666;2023-02-22T14:38:46;44.58;;;27.25;;
41661;SDS011;27351;45.992;12.666;2023-02-22T14:41:13;46.53;;;27.73;;
41661;SDS011;27351;45.992;12.666;2023-02-22T14:43:41;46.50;;;27.80;;
41661;SDS011;27351;45.992;12.666;2023-02-22T14:46:08;46.15;;;27.33;;
41661;SDS011;27351;45.992;12.666;2023-02-22T14:48:36;46.25;;;26.55;;
41661;SDS011;27351;45.992;12.666;2023-02-22T14:51:14;47.97;;;29.10;;
41661;SDS011;27351;45.992;12.666;2023-02-22T14:53:48;47.17;;;27.65;;
41661;SDS011;27351;45.992;12.666;2023-02-22T14:56:24;48.67;;;28.52;;
41661;SDS011;27351;45.992;12.666;2023-02-22T15:01:33;47.90;;;29.00;;
41661;SDS011;27351;45.992;12.666;2023-02-22T15:06:43;49.35;;;28.40;;
41661;SDS011;27351;45.992;12.666;2023-02-22T15:09:28;48.45;;;27.48;;
41661;SDS011;27351;45.992;12.666;2023-02-22T15:12:09;50.70;;;29.65;;
41661;SDS011;27351;45.992;12.666;2023-02-22T15:14:37;49.63;;;28.10;;
41661;SDS011;27351;45.992;12.666;2023-02-22T15:17:08;47.90;;;28.85;;
41661;SDS011;27351;45.992;12.666;2023-02-22T15:19:37;50.53;;;29.50;;
41661;SDS011;27351;45.992;12.666;2023-02-22T15:22:04;48.63;;;29.58;;
41661;SDS011;27351;45.992;12.666;2023-02-22T15:24:33;48.72;;;29.05;;
41661;SDS011;27351;45.992;12.666;2023-02-22T15:27:11;51.42;;;29.40;;
41661;SDS011;27351;45.992;12.666;2023-02-22T15:29:39;47.92;;;28.77;;
41661;SDS011;27351;45.992;12.666;2023-02-22T15:34:43;50.93;;;30.13;;
41661;SDS011;27351;45.992;12.666;2023-02-22T15:37:17;49.57;;;28.83;;
41661;SDS011;27351;45.992;12.666;2023-02-22T15:39:44;49.65;;;28.98;;
41661;SDS011;27351;45.992;12.666;2023-02-22T15:42:11;50.30;;;29.70;;
41661;SDS011;27351;45.992;12.666;2023-02-22T15:44:44;50.08;;;30.10;;
41661;SDS011;27351;45.992;12.666;2023-02-22T15:47:20;49.35;;;29.45;;
41661;SDS011;27351;45.992;12.666;2023-02-22T15:52:32;51.33;;;29.85;;
41661;SDS011;27351;45.992;12.666;2023-02-22T15:54:58;49.77;;;29.57;;
41661;SDS011;27351;45.992;12.666;2023-02-22T15:57:24;48.80;;;30.07;;
41661;SDS011;27351;45.992;12.666;2023-02-22T15:59:52;53.30;;;31.65;;
41661;SDS011;27351;45.992;12.666;2023-02-22T16:02:24;54.35;;;30.83;;
41661;SDS011;27351;45.992;12.666;2023-02-22T16:05:12;54.40;;;33.47;;
41661;SDS011;27351;45.992;12.666;2023-02-22T16:07:40;53.65;;;32.38;;
41661;SDS011;27351;45.992;12.666;2023-02-22T16:10:26;56.03;;;32.07;;
41661;SDS011;27351;45.992;12.666;2023-02-22T16:13:05;57.70;;;32.42;;
41661;SDS011;27351;45.992;12.666;2023-02-22T16:15:31;54.92;;;31.38;;
41661;SDS011;27351;45.992;12.666;2023-02-22T16:17:57;57.15;;;31.33;;
41661;SDS011;27351;45.992;12.666;2023-02-22T16:20:40;57.17;;;32.30;;
41661;SDS011;27351;45.992;12.666;2023-02-22T16:23:22;58.00;;;32.28;;
41661;SDS011;27351;45.992;12.666;2023-02-22T16:25:59;53.03;;;32.70;;
41661;SDS011;27351;45.992;12.666;2023-02-22T16:28:26;53.05;;;31.92;;
41661;SDS011;27351;45.992;12.666;2023-02-22T16:30:58;53.17;;;31.80;;
41661;SDS011;27351;45.992;12.666;2023-02-22T16:33:23;55.30;;;32.10;;